sensor_id;sensor_type;location;lat;lon;timestamp;P1;durP1;ratioP1;P2;durP2;ratioP2
483;SDS011;228;48.922;12.198;2023-04-24T04:04:27;3.20;;;2.90;;
483;SDS011;228;48.922;12.198;2023-04-24T04:07:12;3.17;;;2.80;;
483;SDS011;228;48.922;12.198;2023-04-24T04:19:10;3.53;;;2.57;;
483;SDS011;228;48.922;12.198;2023-04-24T04:21:44;3.40;;;2.57;;
483;SDS011;228;48.922;12.198;2023-04-24T04:24:36;2.83;;;2.50;;
483;SDS011;228;48.922;12.198;2023-04-24T04:28:00;2.53;;;2.20;;
483;SDS011;228;48.922;12.198;2023-04-24T04:31:14;2.63;;;2.43;;
483;SDS011;228;48.922;12.198;2023-04-24T04:33:54;3.03;;;2.50;;
483;SDS011;228;48.922;12.198;2023-04-24T04:36:21;3.63;;;2.53;;
483;SDS011;228;48.922;12.198;2023-04-24T04:38:52;6.57;;;2.77;;
483;SDS011;228;48.922;12.198;2023-04-24T04:41:53;6.27;;;2.47;;
483;SDS011;228;48.922;12.198;2023-04-24T04:44:42;2.37;;;2.10;;
483;SDS011;228;48.922;12.198;2023-04-24T04:47:32;3.27;;;2.30;;
483;SDS011;228;48.922;12.198;2023-04-24T04:52:42;3.40;;;2.37;;
483;SDS011;228;48.922;12.198;2023-04-24T04:55:21;3.73;;;2.70;;
483;SDS011;228;48.922;12.198;2023-04-24T04:58:08;4.13;;;2.30;;
483;SDS011;228;48.922;12.198;2023-04-24T05:00:35;3.00;;;2.30;;
483;SDS011;228;48.922;12.198;2023-04-24T05:03:13;3.37;;;2.40;;
483;SDS011;228;48.922;12.198;2023-04-24T05:05:41;3.53;;;2.30;;
483;SDS011;228;48.922;12.198;2023-04-24T05:08:12;3.00;;;2.63;;
483;SDS011;228;48.922;12.198;2023-04-24T05:10:58;2.40;;;2.20;;
483;SDS011;228;48.922;12.198;2023-04-24T05:13:29;2.90;;;2.27;;
483;SDS011;228;48.922;12.198;2023-04-24T05:15:57;4.30;;;2.40;;
483;SDS011;228;48.922;12.198;2023-04-24T05:18:31;2.40;;;2.20;;
483;SDS011;228;48.922;12.198;2023-04-24T05:20:57;2.30;;;2.10;;
483;SDS011;228;48.922;12.198;2023-04-24T05:23:25;2.60;;;2.00;;
483;SDS011;228;48.922;12.198;2023-04-24T05:25:54;3.27;;;1.80;;
483;SDS011;228;48.922;12.198;2023-04-24T05:28:21;5.00;;;2.03;;
483;SDS011;228;48.922;12.198;2023-04-24T05:31:03;2.53;;;2.17;;
483;SDS011;228;48.922;12.198;2023-04-24T05:33:29;3.03;;;2.07;;
483;SDS011;228;48.922;12.198;2023-04-24T05:35:57;2.10;;;1.90;;
483;SDS011;228;48.922;12.198;2023-04-24T05:38:25;3.43;;;2.00;;
483;SDS011;228;48.922;12.198;2023-04-24T05:40:51;4.07;;;1.80;;
483;SDS011;228;48.922;12.198;2023-04-24T05:43:17;1.83;;;1.73;;
483;SDS011;228;48.922;12.198;2023-04-24T05:45:44;2.10;;;1.77;;
483;SDS011;228;48.922;12.198;2023-04-24T05:48:11;2.47;;;1.80;;
483;SDS011;228;48.922;12.198;2023-04-24T05:50:39;2.97;;;1.90;;
483;SDS011;228;48.922;12.198;2023-04-24T05:53:05;2.23;;;1.97;;
483;SDS011;228;48.922;12.198;2023-04-24T05:55:34;2.27;;;1.80;;
483;SDS011;228;48.922;12.198;2023-04-24T05:58:02;2.47;;;1.93;;
483;SDS011;228;48.922;12.198;2023-04-24T06:00:29;3.63;;;1.60;;
483;SDS011;228;48.922;12.198;2023-04-24T06:03:02;2.10;;;1.53;;
483;SDS011;228;48.922;12.198;2023-04-24T06:05:30;1.63;;;1.53;;
483;SDS011;228;48.922;12.198;2023-04-24T06:07:57;1.70;;;1.60;;
483;SDS011;228;48.922;12.198;2023-04-24T06:10:26;2.20;;;2.00;;
483;SDS011;228;48.922;12.198;2023-04-24T06:12:54;3.10;;;1.50;;
483;SDS011;228;48.922;12.198;2023-04-24T06:15:26;2.10;;;1.70;;
483;SDS011;228;48.922;12.198;2023-04-24T06:17:58;1.87;;;1.60;;
483;SDS011;228;48.922;12.198;2023-04-24T06:20:25;2.37;;;1.70;;
483;SDS011;228;48.922;12.198;2023-04-24T06:22:51;1.50;;;1.40;;
483;SDS011;228;48.922;12.198;2023-04-24T06:25:18;3.60;;;1.57;;
483;SDS011;228;48.922;12.198;2023-04-24T06:27:46;2.20;;;1.53;;
483;SDS011;228;48.922;12.198;2023-04-24T06:30:13;1.40;;;1.30;;
483;SDS011;228;48.922;12.198;2023-04-24T06:32:40;2.10;;;1.67;;
483;SDS011;228;48.922;12.198;2023-04-24T06:35:06;2.70;;;1.60;;
483;SDS011;228;48.922;12.198;2023-04-24T06:37:33;3.80;;;1.60;;
483;SDS011;228;48.922;12.198;2023-04-24T06:40:00;1.67;;;1.57;;
483;SDS011;228;48.922;12.198;2023-04-24T06:42:26;2.00;;;1.80;;
483;SDS011;228;48.922;12.198;2023-04-24T06:44:55;1.80;;;1.50;;
483;SDS011;228;48.922;12.198;2023-04-24T06:47:21;1.70;;;1.60;;
483;SDS011;228;48.922;12.198;2023-04-24T06:49:47;3.27;;;1.83;;
483;SDS011;228;48.922;12.198;2023-04-24T06:52:13;2.40;;;1.90;;
483;SDS011;228;48.922;12.198;2023-04-24T06:54:41;3.07;;;1.93;;
483;SDS011;228;48.922;12.198;2023-04-24T06:57:07;1.70;;;1.60;;
483;SDS011;228;48.922;12.198;2023-04-24T06:59:34;3.17;;;2.00;;
483;SDS011;228;48.922;12.198;2023-04-24T07:02:00;2.73;;;1.80;;
483;SDS011;228;48.922;12.198;2023-04-24T07:04:29;2.70;;;1.70;;
483;SDS011;228;48.922;12.198;2023-04-24T07:06:55;1.70;;;1.60;;
483;SDS011;228;48.922;12.198;2023-04-24T07:09:24;2.37;;;2.10;;
483;SDS011;228;48.922;12.198;2023-04-24T07:11:52;2.37;;;2.17;;
483;SDS011;228;48.922;12.198;2023-04-24T07:14:18;2.20;;;2.10;;
483;SDS011;228;48.922;12.198;2023-04-24T07:16:46;4.83;;;2.63;;
483;SDS011;228;48.922;12.198;2023-04-24T07:19:12;2.30;;;2.10;;
483;SDS011;228;48.922;12.198;2023-04-24T07:21:39;2.60;;;2.40;;
483;SDS011;228;48.922;12.198;2023-04-24T07:24:06;2.70;;;2.50;;
483;SDS011;228;48.922;12.198;2023-04-24T07:26:36;2.93;;;2.50;;
483;SDS011;228;48.922;12.198;2023-04-24T07:29:03;3.40;;;2.90;;
483;SDS011;228;48.922;12.198;2023-04-24T07:31:30;2.60;;;2.40;;
483;SDS011;228;48.922;12.198;2023-04-24T07:33:56;3.30;;;2.63;;
483;SDS011;228;48.922;12.198;2023-04-24T07:36:23;2.83;;;2.63;;
483;SDS011;228;48.922;12.198;2023-04-24T07:38:51;2.80;;;2.60;;
483;SDS011;228;48.922;12.198;2023-04-24T10:44:47;2.47;;;1.40;;
483;SDS011;228;48.922;12.198;2023-04-24T10:47:22;1.27;;;1.17;;
483;SDS011;228;48.922;12.198;2023-04-24T10:49:50;1.93;;;1.10;;
483;SDS011;228;48.922;12.198;2023-04-24T10:52:19;1.30;;;1.20;;
483;SDS011;228;48.922;12.198;2023-04-24T10:54:46;1.30;;;1.20;;
483;SDS011;228;48.922;12.198;2023-04-24T10:57:25;1.50;;;1.40;;
483;SDS011;228;48.922;12.198;2023-04-24T11:00:15;2.57;;;1.30;;
483;SDS011;228;48.922;12.198;2023-04-24T11:02:47;1.10;;;1.10;;
483;SDS011;228;48.922;12.198;2023-04-24T11:05:16;1.50;;;1.40;;
483;SDS011;228;48.922;12.198;2023-04-24T11:10:54;1.40;;;1.30;;
483;SDS011;228;48.922;12.198;2023-04-24T11:13:29;1.83;;;1.10;;
483;SDS011;228;48.922;12.198;2023-04-24T11:19:08;1.37;;;1.27;;
483;SDS011;228;48.922;12.198;2023-04-24T11:21:44;2.07;;;1.40;;
483;SDS011;228;48.922;12.198;2023-04-24T11:24:25;1.33;;;1.23;;
483;SDS011;228;48.922;12.198;2023-04-24T11:29:40;1.60;;;1.37;;
483;SDS011;228;48.922;12.198;2023-04-24T11:33:08;2.20;;;1.30;;
483;SDS011;228;48.922;12.198;2023-04-24T11:37:46;2.20;;;1.33;;
483;SDS011;228;48.922;12.198;2023-04-24T11:40:16;2.23;;;1.50;;
483;SDS011;228;48.922;12.198;2023-04-24T11:42:48;1.70;;;1.60;;
483;SDS011;228;48.922;12.198;2023-04-24T11:45:27;1.80;;;1.70;;
483;SDS011;228;48.922;12.198;2023-04-24T11:48:02;2.20;;;1.60;;
483;SDS011;228;48.922;12.198;2023-04-24T11:50:46;1.70;;;1.60;;
483;SDS011;228;48.922;12.198;2023-04-24T11:53:12;1.30;;;1.20;;
483;SDS011;228;48.922;12.198;2023-04-24T11:55:41;1.70;;;1.50;;
483;SDS011;228;48.922;12.198;2023-04-24T11:58:08;1.70;;;1.60;;
483;SDS011;228;48.922;12.198;2023-04-24T12:00:36;1.70;;;1.60;;
483;SDS011;228;48.922;12.198;2023-04-24T12:03:26;1.30;;;1.20;;
483;SDS011;228;48.922;12.198;2023-04-24T12:06:04;0.90;;;0.90;;
483;SDS011;228;48.922;12.198;2023-04-24T12:08:41;1.37;;;1.27;;
483;SDS011;228;48.922;12.198;2023-04-24T12:11:07;1.20;;;1.10;;
483;SDS011;228;48.922;12.198;2023-04-24T12:13:43;1.30;;;1.20;;
483;SDS011;228;48.922;12.198;2023-04-24T12:16:11;1.50;;;1.23;;
483;SDS011;228;48.922;12.198;2023-04-24T12:18:43;1.27;;;1.17;;
483;SDS011;228;48.922;12.198;2023-04-24T12:23:54;1.50;;;1.40;;
483;SDS011;228;48.922;12.198;2023-04-24T12:26:21;1.40;;;1.30;;
483;SDS011;228;48.922;12.198;2023-04-24T12:29:01;1.48;;;1.38;;
483;SDS011;228;48.922;12.198;2023-04-24T12:31:30;1.50;;;1.40;;
483;SDS011;228;48.922;12.198;2023-04-24T12:33:58;1.50;;;1.40;;
483;SDS011;228;48.922;12.198;2023-04-24T12:36:26;1.40;;;1.30;;
483;SDS011;228;48.922;12.198;2023-04-24T12:38:55;1.60;;;1.50;;
483;SDS011;228;48.922;12.198;2023-04-24T12:41:24;1.70;;;1.60;;
483;SDS011;228;48.922;12.198;2023-04-24T12:43:50;1.40;;;1.30;;
483;SDS011;228;48.922;12.198;2023-04-24T12:46:20;1.60;;;1.50;;
483;SDS011;228;48.922;12.198;2023-04-24T12:48:48;1.40;;;1.30;;
483;SDS011;228;48.922;12.198;2023-04-24T12:51:16;1.73;;;1.50;;
483;SDS011;228;48.922;12.198;2023-04-24T12:53:43;1.90;;;1.43;;
483;SDS011;228;48.922;12.198;2023-04-24T12:56:10;4.80;;;1.60;;
483;SDS011;228;48.922;12.198;2023-04-24T12:58:36;1.80;;;1.70;;
483;SDS011;228;48.922;12.198;2023-04-24T13:01:02;1.30;;;1.20;;
483;SDS011;228;48.922;12.198;2023-04-24T13:03:28;1.40;;;1.30;;
483;SDS011;228;48.922;12.198;2023-04-24T13:05:59;2.33;;;1.30;;
483;SDS011;228;48.922;12.198;2023-04-24T13:08:26;1.43;;;1.33;;
483;SDS011;228;48.922;12.198;2023-04-24T13:10:52;1.27;;;1.20;;
483;SDS011;228;48.922;12.198;2023-04-24T13:13:21;1.40;;;1.30;;
483;SDS011;228;48.922;12.198;2023-04-24T13:15:47;1.40;;;1.30;;
483;SDS011;228;48.922;12.198;2023-04-24T13:18:17;1.40;;;1.30;;
483;SDS011;228;48.922;12.198;2023-04-24T13:20:44;1.40;;;1.30;;
483;SDS011;228;48.922;12.198;2023-04-24T13:23:12;3.13;;;1.40;;
483;SDS011;228;48.922;12.198;2023-04-24T13:25:40;1.50;;;1.40;;
483;SDS011;228;48.922;12.198;2023-04-24T13:28:15;1.30;;;1.20;;
483;SDS011;228;48.922;12.198;2023-04-24T13:30:49;1.23;;;1.10;;
483;SDS011;228;48.922;12.198;2023-04-24T13:33:16;2.00;;;1.10;;
483;SDS011;228;48.922;12.198;2023-04-24T13:35:45;1.50;;;1.40;;
483;SDS011;228;48.922;12.198;2023-04-24T13:38:14;1.67;;;1.20;;
483;SDS011;228;48.922;12.198;2023-04-24T13:40:40;1.40;;;1.30;;
483;SDS011;228;48.922;12.198;2023-04-24T13:43:07;1.50;;;1.40;;
483;SDS011;228;48.922;12.198;2023-04-24T13:45:34;1.10;;;1.10;;
483;SDS011;228;48.922;12.198;2023-04-24T13:48:00;1.30;;;1.20;;
483;SDS011;228;48.922;12.198;2023-04-24T13:50:28;1.23;;;1.20;;
483;SDS011;228;48.922;12.198;2023-04-24T13:52:54;1.30;;;1.20;;
483;SDS011;228;48.922;12.198;2023-04-24T13:55:22;1.27;;;1.13;;
483;SDS011;228;48.922;12.198;2023-04-24T13:57:48;1.67;;;1.23;;
483;SDS011;228;48.922;12.198;2023-04-24T14:00:14;1.20;;;1.20;;
483;SDS011;228;48.922;12.198;2023-04-24T14:02:41;1.20;;;1.10;;
483;SDS011;228;48.922;12.198;2023-04-24T14:05:07;1.20;;;1.10;;
483;SDS011;228;48.922;12.198;2023-04-24T14:07:33;1.47;;;1.10;;
483;SDS011;228;48.922;12.198;2023-04-24T14:09:59;1.20;;;1.10;;
483;SDS011;228;48.922;12.198;2023-04-24T14:12:25;1.30;;;1.20;;
483;SDS011;228;48.922;12.198;2023-04-24T14:14:52;1.10;;;1.10;;
483;SDS011;228;48.922;12.198;2023-04-24T14:17:19;1.20;;;1.10;;
483;SDS011;228;48.922;12.198;2023-04-24T14:19:45;1.10;;;1.10;;
483;SDS011;228;48.922;12.198;2023-04-24T14:22:12;1.87;;;1.23;;
483;SDS011;228;48.922;12.198;2023-04-24T14:24:42;2.33;;;1.33;;
483;SDS011;228;48.922;12.198;2023-04-24T14:27:08;1.27;;;1.17;;
483;SDS011;228;48.922;12.198;2023-04-24T14:29:34;1.60;;;1.50;;
483;SDS011;228;48.922;12.198;2023-04-24T14:32:00;1.00;;;1.00;;
483;SDS011;228;48.922;12.198;2023-04-24T14:34:26;1.30;;;1.30;;
483;SDS011;228;48.922;12.198;2023-04-24T14:36:52;1.40;;;1.30;;
483;SDS011;228;48.922;12.198;2023-04-24T14:39:19;1.50;;;1.40;;
483;SDS011;228;48.922;12.198;2023-04-24T14:41:45;1.50;;;1.40;;
483;SDS011;228;48.922;12.198;2023-04-24T14:44:11;1.60;;;1.50;;
483;SDS011;228;48.922;12.198;2023-04-24T14:46:37;1.20;;;1.13;;
483;SDS011;228;48.922;12.198;2023-04-24T14:49:03;1.30;;;1.20;;
483;SDS011;228;48.922;12.198;2023-04-24T14:51:30;1.50;;;1.40;;
483;SDS011;228;48.922;12.198;2023-04-24T14:53:56;1.40;;;1.30;;
483;SDS011;228;48.922;12.198;2023-04-24T14:56:22;1.60;;;1.50;;
483;SDS011;228;48.922;12.198;2023-04-24T14:58:49;1.67;;;1.40;;
483;SDS011;228;48.922;12.198;2023-04-24T15:01:15;1.00;;;1.00;;
483;SDS011;228;48.922;12.198;2023-04-24T15:03:41;1.10;;;1.10;;
483;SDS011;228;48.922;12.198;2023-04-24T15:06:07;1.37;;;1.17;;
483;SDS011;228;48.922;12.198;2023-04-24T15:08:33;1.57;;;1.20;;
483;SDS011;228;48.922;12.198;2023-04-24T15:10:59;1.40;;;1.30;;
483;SDS011;228;48.922;12.198;2023-04-24T15:13:26;1.03;;;1.03;;
483;SDS011;228;48.922;12.198;2023-04-24T15:15:52;1.50;;;1.30;;
483;SDS011;228;48.922;12.198;2023-04-24T15:18:18;1.10;;;1.10;;
483;SDS011;228;48.922;12.198;2023-04-24T15:20:45;1.20;;;1.20;;
483;SDS011;228;48.922;12.198;2023-04-24T15:23:11;1.23;;;1.20;;
483;SDS011;228;48.922;12.198;2023-04-24T15:25:37;1.50;;;1.40;;
483;SDS011;228;48.922;12.198;2023-04-24T15:28:03;1.40;;;1.30;;
483;SDS011;228;48.922;12.198;2023-04-24T15:30:30;1.30;;;1.20;;
483;SDS011;228;48.922;12.198;2023-04-24T15:32:57;1.70;;;1.33;;
483;SDS011;228;48.922;12.198;2023-04-24T15:35:26;1.30;;;1.20;;
483;SDS011;228;48.922;12.198;2023-04-24T15:37:54;2.00;;;1.80;;
483;SDS011;228;48.922;12.198;2023-04-24T15:40:23;1.50;;;1.40;;
483;SDS011;228;48.922;12.198;2023-04-24T15:42:49;2.47;;;1.30;;
483;SDS011;228;48.922;12.198;2023-04-24T15:45:15;1.73;;;1.60;;
483;SDS011;228;48.922;12.198;2023-04-24T15:47:41;1.60;;;1.50;;
483;SDS011;228;48.922;12.198;2023-04-24T15:50:11;1.40;;;1.30;;
483;SDS011;228;48.922;12.198;2023-04-24T15:52:37;1.47;;;1.37;;
483;SDS011;228;48.922;12.198;2023-04-24T15:55:03;1.30;;;1.20;;
483;SDS011;228;48.922;12.198;2023-04-24T15:57:30;1.40;;;1.30;;
483;SDS011;228;48.922;12.198;2023-04-24T15:59:56;1.37;;;1.27;;
483;SDS011;228;48.922;12.198;2023-04-24T16:02:23;1.53;;;1.33;;
483;SDS011;228;48.922;12.198;2023-04-24T16:04:49;1.50;;;1.40;;
483;SDS011;228;48.922;12.198;2023-04-24T16:07:16;1.40;;;1.30;;
483;SDS011;228;48.922;12.198;2023-04-24T16:09:43;1.60;;;1.50;;
483;SDS011;228;48.922;12.198;2023-04-24T16:12:09;1.63;;;1.50;;
483;SDS011;228;48.922;12.198;2023-04-24T16:14:35;1.23;;;1.20;;
483;SDS011;228;48.922;12.198;2023-04-24T16:17:02;1.50;;;1.40;;
483;SDS011;228;48.922;12.198;2023-04-24T16:19:29;2.23;;;1.70;;
483;SDS011;228;48.922;12.198;2023-04-24T16:21:56;2.67;;;1.50;;
483;SDS011;228;48.922;12.198;2023-04-24T16:24:23;1.70;;;1.50;;
483;SDS011;228;48.922;12.198;2023-04-24T16:26:50;1.43;;;1.33;;
483;SDS011;228;48.922;12.198;2023-04-24T16:29:17;1.53;;;1.40;;
483;SDS011;228;48.922;12.198;2023-04-24T16:31:43;1.70;;;1.60;;
483;SDS011;228;48.922;12.198;2023-04-24T16:34:09;1.50;;;1.40;;
483;SDS011;228;48.922;12.198;2023-04-24T16:36:35;1.40;;;1.30;;
483;SDS011;228;48.922;12.198;2023-04-24T16:39:02;1.50;;;1.40;;
483;SDS011;228;48.922;12.198;2023-04-24T16:41:30;1.60;;;1.50;;
483;SDS011;228;48.922;12.198;2023-04-24T16:43:56;2.20;;;2.00;;
483;SDS011;228;48.922;12.198;2023-04-24T16:46:22;1.40;;;1.30;;
483;SDS011;228;48.922;12.198;2023-04-24T16:48:48;1.60;;;1.50;;
483;SDS011;228;48.922;12.198;2023-04-24T16:51:14;1.47;;;1.37;;
483;SDS011;228;48.922;12.198;2023-04-24T16:53:41;1.43;;;1.33;;
483;SDS011;228;48.922;12.198;2023-04-24T16:56:08;1.07;;;1.07;;
483;SDS011;228;48.922;12.198;2023-04-24T16:58:34;1.53;;;1.40;;
483;SDS011;228;48.922;12.198;2023-04-24T17:01:00;1.43;;;1.33;;
483;SDS011;228;48.922;12.198;2023-04-24T17:03:26;1.67;;;1.27;;
483;SDS011;228;48.922;12.198;2023-04-24T17:05:52;1.50;;;1.40;;
483;SDS011;228;48.922;12.198;2023-04-24T17:08:21;1.63;;;1.20;;
483;SDS011;228;48.922;12.198;2023-04-24T17:10:57;1.20;;;1.20;;
483;SDS011;228;48.922;12.198;2023-04-24T17:13:23;1.50;;;1.40;;
483;SDS011;228;48.922;12.198;2023-04-24T17:15:50;1.30;;;1.20;;
483;SDS011;228;48.922;12.198;2023-04-24T17:18:17;2.63;;;1.40;;
483;SDS011;228;48.922;12.198;2023-04-24T17:20:49;1.60;;;1.50;;
483;SDS011;228;48.922;12.198;2023-04-24T17:23:16;1.43;;;1.33;;
483;SDS011;228;48.922;12.198;2023-04-24T17:25:42;1.37;;;1.27;;
483;SDS011;228;48.922;12.198;2023-04-24T17:28:20;1.30;;;1.20;;
483;SDS011;228;48.922;12.198;2023-04-24T17:30:56;1.50;;;1.40;;
483;SDS011;228;48.922;12.198;2023-04-24T17:33:23;1.43;;;1.33;;
483;SDS011;228;48.922;12.198;2023-04-24T17:35:50;1.40;;;1.30;;
483;SDS011;228;48.922;12.198;2023-04-24T17:38:16;1.40;;;1.30;;
483;SDS011;228;48.922;12.198;2023-04-24T17:40:44;1.50;;;1.40;;
483;SDS011;228;48.922;12.198;2023-04-24T17:43:13;1.40;;;1.30;;
483;SDS011;228;48.922;12.198;2023-04-24T17:45:47;1.43;;;1.33;;
483;SDS011;228;48.922;12.198;2023-04-24T17:48:18;1.37;;;1.27;;
483;SDS011;228;48.922;12.198;2023-04-24T17:50:45;1.40;;;1.27;;
483;SDS011;228;48.922;12.198;2023-04-24T17:53:11;1.60;;;1.50;;
483;SDS011;228;48.922;12.198;2023-04-24T17:55:41;1.50;;;1.40;;
483;SDS011;228;48.922;12.198;2023-04-24T17:58:08;1.50;;;1.40;;
483;SDS011;228;48.922;12.198;2023-04-24T18:00:35;1.43;;;1.33;;
483;SDS011;228;48.922;12.198;2023-04-24T18:03:03;1.73;;;1.50;;
483;SDS011;228;48.922;12.198;2023-04-24T18:05:34;1.70;;;1.60;;
483;SDS011;228;48.922;12.198;2023-04-24T18:08:04;1.77;;;1.40;;
483;SDS011;228;48.922;12.198;2023-04-24T18:10:32;4.23;;;2.07;;
483;SDS011;228;48.922;12.198;2023-04-24T18:13:02;1.73;;;1.63;;
483;SDS011;228;48.922;12.198;2023-04-24T18:15:32;1.57;;;1.47;;
483;SDS011;228;48.922;12.198;2023-04-24T18:17:59;1.40;;;1.30;;
483;SDS011;228;48.922;12.198;2023-04-24T18:20:26;1.50;;;1.40;;
483;SDS011;228;48.922;12.198;2023-04-24T18:22:52;1.63;;;1.53;;
483;SDS011;228;48.922;12.198;2023-04-24T18:25:18;1.77;;;1.67;;
483;SDS011;228;48.922;12.198;2023-04-24T18:27:50;1.97;;;1.77;;
483;SDS011;228;48.922;12.198;2023-04-24T18:30:18;1.90;;;1.80;;
483;SDS011;228;48.922;12.198;2023-04-24T18:32:50;1.53;;;1.43;;
483;SDS011;228;48.922;12.198;2023-04-24T18:35:24;2.30;;;1.80;;
483;SDS011;228;48.922;12.198;2023-04-24T18:37:52;4.23;;;2.00;;
483;SDS011;228;48.922;12.198;2023-04-24T18:40:18;4.17;;;1.80;;
483;SDS011;228;48.922;12.198;2023-04-24T18:42:45;2.00;;;1.77;;
483;SDS011;228;48.922;12.198;2023-04-24T18:45:13;2.47;;;1.93;;
483;SDS011;228;48.922;12.198;2023-04-24T18:47:43;1.77;;;1.63;;
483;SDS011;228;48.922;12.198;2023-04-24T18:50:11;2.03;;;1.80;;
483;SDS011;228;48.922;12.198;2023-04-24T18:52:39;2.67;;;1.73;;
483;SDS011;228;48.922;12.198;2023-04-24T18:55:05;2.10;;;2.00;;
483;SDS011;228;48.922;12.198;2023-04-24T18:57:31;2.43;;;2.00;;
483;SDS011;228;48.922;12.198;2023-04-24T18:59:58;2.00;;;1.80;;
483;SDS011;228;48.922;12.198;2023-04-24T19:02:24;2.97;;;1.93;;
483;SDS011;228;48.922;12.198;2023-04-24T19:04:50;2.27;;;1.93;;
483;SDS011;228;48.922;12.198;2023-04-24T19:07:16;2.33;;;1.80;;
483;SDS011;228;48.922;12.198;2023-04-24T19:09:44;2.07;;;1.93;;
483;SDS011;228;48.922;12.198;2023-04-24T19:12:10;2.30;;;1.83;;
483;SDS011;228;48.922;12.198;2023-04-24T19:14:36;2.00;;;1.80;;
483;SDS011;228;48.922;12.198;2023-04-24T19:17:02;2.70;;;1.90;;
483;SDS011;228;48.922;12.198;2023-04-24T19:19:28;2.00;;;1.80;;
483;SDS011;228;48.922;12.198;2023-04-24T19:21:56;1.60;;;1.50;;
483;SDS011;228;48.922;12.198;2023-04-24T19:24:22;2.00;;;1.80;;
483;SDS011;228;48.922;12.198;2023-04-24T19:26:50;3.17;;;2.00;;
483;SDS011;228;48.922;12.198;2023-04-24T19:29:16;1.60;;;1.43;;
483;SDS011;228;48.922;12.198;2023-04-24T19:31:42;1.70;;;1.60;;
483;SDS011;228;48.922;12.198;2023-04-24T19:34:08;2.30;;;1.83;;
483;SDS011;228;48.922;12.198;2023-04-24T19:36:34;1.73;;;1.63;;
483;SDS011;228;48.922;12.198;2023-04-24T19:39:00;2.10;;;1.90;;
483;SDS011;228;48.922;12.198;2023-04-24T19:41:27;2.70;;;1.53;;
483;SDS011;228;48.922;12.198;2023-04-24T19:43:53;1.73;;;1.63;;
483;SDS011;228;48.922;12.198;2023-04-24T19:46:20;2.47;;;1.70;;
483;SDS011;228;48.922;12.198;2023-04-24T19:48:46;3.20;;;1.90;;
483;SDS011;228;48.922;12.198;2023-04-24T19:51:14;1.50;;;1.40;;
483;SDS011;228;48.922;12.198;2023-04-24T19:53:40;1.77;;;1.60;;
483;SDS011;228;48.922;12.198;2023-04-24T19:56:06;1.50;;;1.40;;
483;SDS011;228;48.922;12.198;2023-04-24T19:58:34;1.77;;;1.63;;
483;SDS011;228;48.922;12.198;2023-04-24T20:01:00;2.00;;;1.80;;
483;SDS011;228;48.922;12.198;2023-04-24T20:03:28;1.93;;;1.70;;
483;SDS011;228;48.922;12.198;2023-04-24T20:05:56;3.13;;;1.70;;
483;SDS011;228;48.922;12.198;2023-04-24T20:08:22;1.93;;;1.80;;
483;SDS011;228;48.922;12.198;2023-04-24T20:10:48;1.70;;;1.60;;
483;SDS011;228;48.922;12.198;2023-04-24T20:13:15;2.63;;;1.90;;
483;SDS011;228;48.922;12.198;2023-04-24T20:15:43;1.90;;;1.80;;
483;SDS011;228;48.922;12.198;2023-04-24T20:18:09;3.67;;;1.77;;
483;SDS011;228;48.922;12.198;2023-04-24T20:20:37;2.10;;;1.90;;
483;SDS011;228;48.922;12.198;2023-04-24T20:23:10;2.17;;;1.97;;
483;SDS011;228;48.922;12.198;2023-04-24T20:25:51;3.50;;;2.03;;
483;SDS011;228;48.922;12.198;2023-04-24T20:28:24;2.23;;;1.90;;
483;SDS011;228;48.922;12.198;2023-04-24T20:30:54;2.33;;;2.13;;
483;SDS011;228;48.922;12.198;2023-04-24T20:33:22;1.93;;;1.83;;
483;SDS011;228;48.922;12.198;2023-04-24T20:35:50;2.93;;;2.30;;
483;SDS011;228;48.922;12.198;2023-04-24T20:38:16;2.23;;;2.00;;
483;SDS011;228;48.922;12.198;2023-04-24T20:40:47;1.87;;;1.77;;
483;SDS011;228;48.922;12.198;2023-04-24T20:43:16;2.97;;;2.10;;
483;SDS011;228;48.922;12.198;2023-04-24T20:47:08;2.63;;;2.00;;
483;SDS011;228;48.922;12.198;2023-04-24T20:50:07;1.93;;;1.83;;
483;SDS011;228;48.922;12.198;2023-04-24T20:52:36;3.80;;;2.43;;
483;SDS011;228;48.922;12.198;2023-04-24T20:55:11;1.70;;;1.60;;
483;SDS011;228;48.922;12.198;2023-04-24T20:58:32;2.27;;;1.70;;
483;SDS011;228;48.922;12.198;2023-04-24T21:01:45;2.80;;;2.07;;
483;SDS011;228;48.922;12.198;2023-04-24T21:08:26;2.10;;;1.90;;
483;SDS011;228;48.922;12.198;2023-04-24T21:12:22;2.03;;;1.80;;
483;SDS011;228;48.922;12.198;2023-04-24T21:14:48;2.70;;;2.00;;
